Flight Track Log - Related Links

Times and Time Zones

All times are in EDT time to prevent confusion due to time zone crossing. See the THY322 flight status page for this flight to view local times or setup timezone preferences in your user account.

Time Position Orientation Groundspeed Altitude Reporting Facility
EDT Latitude Longitude Course Direction KTS MPH feet Rate Location/Type
Tue 02:58:00 PM 41.0051 29.9932 88° East  Level Estimated
Tue 02:59:00 PM 41.0082 30.1607 89° East  Level Estimated
Tue 03:00:00 PM 41.0110 30.3282 89° East  Level Estimated
Tue 03:01:00 PM 41.0136 30.4957 89° East  Level Estimated
Tue 03:02:00 PM 41.0159 30.6633 89° East  Level Estimated
Tue 03:03:00 PM 41.0181 30.8308 89° East  Level Estimated
Tue 03:04:00 PM 41.0199 30.9984 89° East  Level Estimated
Tue 03:05:00 PM 41.0215 31.1660 89° East  Level Estimated
Tue 03:06:00 PM 41.0229 31.3336 89° East  Level Estimated
Tue 03:07:00 PM 41.0240 31.5012 89° East  Level Estimated
Tue 03:08:00 PM 41.0249 31.6688 90° East  Level Estimated
Tue 03:09:00 PM 41.0255 31.8364 90° East  Level Estimated
Tue 03:10:00 PM 41.0259 32.0040 90° East  Level Estimated
Tue 03:11:00 PM 41.0261 32.1716 90° East  Level Estimated
Tue 03:12:00 PM 41.0260 32.3392 90° East  Level Estimated
Tue 03:13:00 PM 41.0257 32.5068 90° East  Level Estimated
Tue 03:14:00 PM 41.0251 32.6744 90° East  Level Estimated
Tue 03:15:00 PM 41.0243 32.8420 90° East  Level Estimated
Tue 03:16:00 PM 41.0232 33.0096 90° East  Level Estimated
Tue 03:17:00 PM 41.0219 33.1772 91° East  Level Estimated
Tue 03:18:00 PM 41.0204 33.3448 91° East  Level Estimated
Tue 03:19:00 PM 41.0186 33.5123 91° East  Level Estimated
Tue 03:20:00 PM 41.0165 33.6799 91° East  Level Estimated
Tue 03:21:00 PM 41.0143 33.8475 91° East  Level Estimated
Tue 03:22:00 PM 41.0117 34.0150 91° East  Level Estimated
Tue 03:23:00 PM 41.0090 34.1825 91° East  Level Estimated
Tue 03:24:00 PM 41.0060 34.3500 91° East  Level Estimated
Tue 03:25:00 PM 41.0028 34.5175 91° East  Level Estimated
Tue 03:26:00 PM 40.9993 34.6850 92° East  Level Estimated
Tue 03:27:00 PM 40.9955 34.8525 92° East  Level Estimated
Tue 03:28:00 PM 40.9916 35.0199 92° East  Level Estimated
Tue 03:29:00 PM 40.9874 35.1873 92° East  Level Estimated
Tue 03:30:00 PM 40.9829 35.3547 92° East  Level Estimated
Tue 03:31:00 PM 40.9782 35.5221 92° East  Level Estimated
Tue 03:32:00 PM 40.9733 35.6895 92° East  Level Estimated
Tue 03:33:00 PM 40.9681 35.8568 92° East  Level Estimated
Tue 03:34:00 PM 40.9627 36.0241 92° East  Level Estimated
Tue 03:35:00 PM 40.9570 36.1914 93° East  Level Estimated
Tue 03:36:00 PM 40.9511 36.3586 93° East  Level Estimated
Tue 03:37:00 PM 40.9449 36.5258 93° East  Level Estimated
Tue 03:38:00 PM 40.9385 36.6930 93° East  Level Estimated
Tue 03:39:00 PM 40.9319 36.8601 93° East  Level Estimated
Tue 03:40:00 PM 40.9250 37.0272 93° East  Level Estimated
Tue 03:41:00 PM 40.9179 37.1943 93° East  Level Estimated
Tue 03:42:00 PM 40.9106 37.3614 93° East  Level Estimated
Tue 03:43:00 PM 40.9030 37.5284 93° East  Level Estimated
Tue 03:44:00 PM 40.8951 37.6953 93° East  Level Estimated
Tue 03:45:00 PM 40.8871 37.8623 94° East  Level Estimated
Tue 03:46:00 PM 40.8787 38.0291 94° East  Level Estimated
Tue 03:47:00 PM 40.8702 38.1960 94° East  Level Estimated
Tue 03:48:00 PM 40.8614 38.3628 94° East  Level Estimated
Tue 03:49:00 PM 40.8524 38.5295 94° East  Level Estimated
Tue 03:50:00 PM 40.8431 38.6962 94° East  Level Estimated
Tue 03:51:00 PM 40.8336 38.8629 94° East  Level Estimated
Tue 03:52:00 PM 40.8238 39.0295 94° East  Level Estimated
Tue 03:53:00 PM 40.8138 39.1960 94° East  Level Estimated
Tue 03:54:00 PM 40.8036 39.3626 95° East  Level Estimated
Tue 03:55:00 PM 40.7931 39.5290 95° East  Level Estimated
Tue 03:56:00 PM 40.7824 39.6954 95° East  Level Estimated
Tue 03:57:00 PM 40.7714 39.8618 95° East  Level Estimated
Tue 03:58:00 PM 40.7602 40.0281 95° East  Level Estimated
Tue 03:59:00 PM 40.7488 40.1943 95° East  Level Estimated
Tue 04:00:00 PM 40.7371 40.3605 95° East  Level Estimated
Tue 04:01:00 PM 40.7252 40.5266 95° East  Level Estimated
Tue 04:02:00 PM 40.7131 40.6927 95° East  Level Estimated
Tue 04:03:00 PM 40.7007 40.8587 96° East  Level Estimated
Tue 04:04:00 PM 40.6881 41.0246 96° East  Level Estimated
Tue 04:05:00 PM 40.6752 41.1905 96° East  Level Estimated
Tue 04:06:00 PM 40.6621 41.3563 96° East  Level Estimated
Tue 04:07:00 PM 40.6488 41.5220 96° East  Level Estimated
Tue 04:08:00 PM 40.6352 41.6877 96° East  Level Estimated
Tue 04:09:00 PM 40.6214 41.8533 96° East  Level Estimated
Tue 04:10:00 PM 40.6073 42.0188 96° East  Level Estimated
Tue 04:11:00 PM 40.5931 42.1843 96° East  Level Estimated
Tue 04:12:00 PM 40.5785 42.3497 97° East  Level Estimated
Tue 04:13:00 PM 40.5638 42.5150 97° East  Level Estimated
Tue 04:14:00 PM 40.5488 42.6803 97° East  Level Estimated
Tue 04:15:00 PM 40.5336 42.8455 97° East  Level Estimated
Tue 04:16:00 PM 40.5181 43.0106 97° East  Level Estimated
Tue 04:17:00 PM 40.5024 43.1756 97° East  Level Estimated
Tue 04:18:00 PM 40.4865 43.3405 97° East  Level Estimated
Tue 04:19:00 PM 40.4703 43.5054 97° East  Level Estimated
Tue 04:20:00 PM 40.4539 43.6702 97° East  Level Estimated
Tue 04:21:00 PM 40.4373 43.8349 98° East  Level Estimated
Tue 04:22:00 PM 40.4205 43.9995 98° East  Level Estimated
Tue 04:23:00 PM 40.4034 44.1641 98° East  Level Estimated
Tue 04:24:00 PM 40.3860 44.3285 98° East  Level Estimated
Tue 04:25:00 PM 40.3685 44.4929 98° East  Level Estimated
Tue 04:26:00 PM 40.3507 44.6572 98° East  Level Estimated
Tue 04:27:00 PM 40.3326 44.8214 98° East  Level Estimated
Tue 04:28:00 PM 40.3144 44.9855 98° East  Level Estimated
Tue 04:29:00 PM 40.2959 45.1495 98° East  Level Estimated
Tue 04:30:00 PM 40.2772 45.3135 98° East  Level Estimated
Tue 04:31:00 PM 40.2582 45.4773 99° East  Level Estimated
Tue 04:32:00 PM 40.2390 45.6411 99° East  Level Estimated
Tue 04:33:00 PM 40.2196 45.8047 99° East  Level Estimated
Tue 04:34:00 PM 40.2000 45.9683 99° East  Level Estimated
Tue 04:35:00 PM 40.1801 46.1317 99° East  Level Estimated
Tue 04:36:00 PM 40.1600 46.2951 99° East  Level Estimated
Tue 04:37:00 PM 40.1396 46.4584 99° East  Level Estimated
Tue 04:38:00 PM 40.1191 46.6216 99° East  Level Estimated
Tue 04:39:00 PM 40.0983 46.7846 99° East  Level Estimated
Tue 04:40:00 PM 40.0773 46.9476 100° East  Level Estimated
Tue 04:41:00 PM 40.0560 47.1105 100° East  Level Estimated
Tue 04:42:00 PM 40.0345 47.2733 100° East  Level Estimated
Tue 04:43:00 PM 40.0128 47.4359 100° East  Level Estimated
Tue 04:44:00 PM 39.9909 47.5985 100° East  Level Estimated
Tue 04:45:00 PM 39.9687 47.7609 100° East  Level Estimated
Tue 04:46:00 PM 39.9464 47.9233 100° East  Level Estimated
Tue 04:47:00 PM 39.9237 48.0855 100° East  Level Estimated
Tue 04:48:00 PM 39.9009 48.2477 100° East  Level Estimated
Tue 04:49:00 PM 39.8778 48.4097 100° East  Level Estimated
Tue 04:50:00 PM 39.8545 48.5716 101° East  Level Estimated
Tue 04:51:00 PM 39.8310 48.7335 101° East  Level Estimated
Tue 04:52:00 PM 39.8073 48.8951 101° East  Level Estimated
Tue 04:53:00 PM 39.7833 49.0567 101° East  Level Estimated
Tue 04:54:00 PM 39.7591 49.2182 101° East  Level Estimated
Tue 04:55:00 PM 39.7347 49.3796 101° East  Level Estimated
Tue 04:56:00 PM 39.7101 49.5408 101° East  Level Estimated
Tue 04:57:00 PM 39.6852 49.7019 101° East  Level Estimated
Tue 04:58:00 PM 39.6602 49.8630 101° East  Level Estimated
Tue 04:59:00 PM 39.6348 50.0238 101° East  Level Estimated
Tue 05:00:00 PM 39.6093 50.1846 102° East  Level Estimated
Tue 05:01:00 PM 39.5836 50.3453 102° East  Level Estimated
Tue 05:02:00 PM 39.5576 50.5058 102° East  Level Estimated
Tue 05:03:00 PM 39.5314 50.6662 102° East  Level Estimated
Tue 05:04:00 PM 39.5050 50.8265 102° East  Level Estimated
Tue 05:05:00 PM 39.4784 50.9867 102° East  Level Estimated
Tue 05:06:00 PM 39.4515 51.1468 102° East  Level Estimated
Tue 05:07:00 PM 39.4245 51.3067 102° East  Level Estimated
Tue 05:08:00 PM 39.3972 51.4665 102° East  Level Estimated
Tue 05:09:00 PM 39.3697 51.6262 103° East  Level Estimated
Tue 05:10:00 PM 39.3420 51.7857 103° East  Level Estimated
Tue 05:11:00 PM 39.3140 51.9451 103° East  Level Estimated
Tue 05:12:00 PM 39.2859 52.1045 103° East  Level Estimated
Tue 05:13:00 PM 39.2575 52.2636 103° East  Level Estimated
Tue 05:14:00 PM 39.2289 52.4226 103° East  Level Estimated
Tue 05:15:00 PM 39.2001 52.5816 103° East  Level Estimated
Tue 05:16:00 PM 39.1711 52.7403 103° East  Level Estimated
Tue 05:17:00 PM 39.1418 52.8990 103° East  Level Estimated
Tue 05:18:00 PM 39.1124 53.0575 103° East  Level Estimated
Tue 05:19:00 PM 39.0827 53.2159 104° East  Level Estimated
Tue 05:20:00 PM 39.0528 53.3741 104° East  Level Estimated
Tue 05:21:00 PM 39.0228 53.5322 104° East  Level Estimated
Tue 05:22:00 PM 38.9925 53.6902 104° East  Level Estimated
Tue 05:23:00 PM 38.9619 53.8481 104° East  Level Estimated
Tue 05:24:00 PM 38.9312 54.0058 104° East  Level Estimated
Tue 05:25:00 PM 38.9002 54.1633 104° East  Level Estimated
Tue 05:26:00 PM 38.8691 54.3208 104° East  Level Estimated
Tue 05:27:00 PM 38.8377 54.4781 104° East  Level Estimated
Tue 05:28:00 PM 38.8061 54.6352 104° East  Level Estimated
Tue 05:29:00 PM 38.7744 54.7922 105° East  Level Estimated
Tue 05:30:00 PM 38.7424 54.9491 105° East  Level Estimated
Tue 05:31:00 PM 38.7102 55.1058 105° East  Level Estimated
Tue 05:32:00 PM 38.6777 55.2624 105° East  Level Estimated
Tue 05:33:00 PM 38.6451 55.4189 105° East  Level Estimated
Tue 05:34:00 PM 38.6123 55.5752 105° East  Level Estimated
Tue 05:35:00 PM 38.5792 55.7313 105° East  Level Estimated
Tue 05:36:00 PM 38.5460 55.8874 105° East  Level Estimated
Tue 05:37:00 PM 38.5125 56.0432 105° East  Level Estimated
Tue 05:38:00 PM 38.4789 56.1990 105° East  Level Estimated
Tue 05:39:00 PM 38.4450 56.3545 105° East  Level Estimated
Tue 05:40:00 PM 38.4109 56.5100 106° East  Level Estimated
Tue 05:41:00 PM 38.3767 56.6653 106° East  Level Estimated
Tue 05:42:00 PM 38.3422 56.8204 106° East  Level Estimated
Tue 05:43:00 PM 38.3075 56.9754 106° East  Level Estimated
Tue 05:44:00 PM 38.2726 57.1303 106° East  Level Estimated
Tue 05:45:00 PM 38.2375 57.2850 106° East  Level Estimated
Tue 05:46:00 PM 38.2022 57.4395 106° East  Level Estimated
Tue 05:47:00 PM 38.1667 57.5939 106° East  Level Estimated
Tue 05:48:00 PM 38.1310 57.7481 106° East  Level Estimated
Tue 05:49:00 PM 38.0951 57.9022 106° East  Level Estimated
Tue 05:50:00 PM 38.0590 58.0562 107° East  Level Estimated
Tue 05:51:00 PM 38.0227 58.2100 107° East  Level Estimated
Tue 05:52:00 PM 37.9868 58.3610 107° East  Level Estimated
Tue 05:53:00 PM 37.9868 58.3610 North  Level Estimated
Tue 05:54:00 PM 37.9868 58.3610 North  Level Estimated
Tue 05:55:00 PM 37.9868 58.3610 North  Level Estimated
Tue 05:56:00 PM 37.9868 58.3610 North  Level Estimated
Tue 05:57:00 PM 37.9868 58.3610 North  Level Estimated
Tue 05:58:00 PM 37.9868 58.3610 North  Level Estimated
Tue 05:59:00 PM 37.9868 58.3610 North  Level Estimated
Tue 06:00:00 PM 37.9868 58.3610 North  Level Estimated
Tue 06:01:00 PM 37.9868 58.3610 North  Level Estimated
Tue 06:02:00 PM 37.9868 58.3610 North  Level Estimated
Tue 06:03:00 PM 37.9868 58.3610 North  Level Estimated
Tue 06:04:00 PM 37.9868 58.3610 North  Level Estimated
Tue 06:05:00 PM 37.9868 58.3610 North  Level Estimated
Tue 06:06:00 PM 37.9868 58.3610 North  Level Estimated
Tue 06:07:00 PM 37.9868 58.3610 North  Level Estimated
Tue 06:08:00 PM 37.9868 58.3610 North  Level Estimated

Login

Don't have an account? Register now (free) for customized features, flight alerts, and more!